createdAt,value
2022-08-30T00:00:40.668Z,2.67
2022-08-30T00:03:12.313Z,3.00
2022-08-30T00:05:41.862Z,2.20
2022-08-30T00:08:11.857Z,3.03
2022-08-30T00:10:43.635Z,2.40
2022-08-30T00:13:15.364Z,2.05
2022-08-30T00:15:45.114Z,2.30
2022-08-30T00:18:15.775Z,2.15
2022-08-30T00:20:45.627Z,2.30
2022-08-30T00:23:15.946Z,2.20
2022-08-30T00:25:45.677Z,2.67
2022-08-30T00:28:17.021Z,2.45
2022-08-30T00:33:16.199Z,2.17
2022-08-30T00:35:45.988Z,2.38
2022-08-30T00:38:15.682Z,2.60
2022-08-30T00:40:46.424Z,2.40
2022-08-30T00:43:29.173Z,1.88
2022-08-30T00:45:58.788Z,2.60
2022-08-30T00:48:27.813Z,2.40
2022-08-30T00:51:00.283Z,2.25
2022-08-30T00:53:35.247Z,2.40
2022-08-30T00:56:05.677Z,2.60
2022-08-30T00:58:40.008Z,2.27
2022-08-30T01:01:10.412Z,2.33
2022-08-30T01:03:40.537Z,2.13
2022-08-30T01:06:10.024Z,2.40
2022-08-30T01:08:39.271Z,2.20
2022-08-30T01:11:09.121Z,2.60
2022-08-30T01:13:40.809Z,2.22
2022-08-30T01:16:10.284Z,2.95
2022-08-30T01:18:39.642Z,2.22
2022-08-30T01:21:17.837Z,2.58
2022-08-30T01:23:51.296Z,2.70
2022-08-30T01:26:22.345Z,2.40
2022-08-30T01:28:56.106Z,2.47
2022-08-30T01:31:25.407Z,2.78
2022-08-30T01:33:54.561Z,3.00
2022-08-30T01:36:23.648Z,2.55
2022-08-30T01:38:56.945Z,2.80
2022-08-30T01:41:28.404Z,2.70
2022-08-30T01:46:29.985Z,2.72
2022-08-30T01:48:59.883Z,2.65
2022-08-30T01:51:30.114Z,2.67
2022-08-30T01:54:01.342Z,2.30
2022-08-30T01:56:31.168Z,2.35
2022-08-30T01:59:03.164Z,2.70
2022-08-30T02:01:35.948Z,2.55
2022-08-30T02:04:05.751Z,2.58
2022-08-30T02:06:35.117Z,2.30
2022-08-30T02:09:05.735Z,2.13
2022-08-30T02:11:35.319Z,2.65
2022-08-30T02:14:04.552Z,2.30
2022-08-30T02:16:34.404Z,2.30
2022-08-30T02:19:03.491Z,2.22
2022-08-30T02:21:32.560Z,3.58
2022-08-30T02:24:01.622Z,2.80
2022-08-30T02:26:32.099Z,2.60
2022-08-30T02:29:01.301Z,2.70
2022-08-30T02:31:30.298Z,3.05
2022-08-30T02:33:59.367Z,3.88
2022-08-30T02:36:28.501Z,3.53
2022-08-30T02:38:57.931Z,2.95
2022-08-30T02:41:26.924Z,2.70
2022-08-30T02:43:58.600Z,2.22
2022-08-30T02:46:28.503Z,2.17
2022-08-30T02:49:13.129Z,2.85
2022-08-30T02:51:51.669Z,2.50
2022-08-30T02:54:20.927Z,2.75
2022-08-30T02:56:50.533Z,3.13
2022-08-30T02:59:21.101Z,3.15
2022-08-30T03:01:50.256Z,3.15
2022-08-30T03:04:22.475Z,3.10
2022-08-30T03:06:56.151Z,2.65
2022-08-30T03:09:25.229Z,2.95
2022-08-30T03:11:54.293Z,2.95
2022-08-30T03:14:24.811Z,2.95
2022-08-30T03:16:53.973Z,4.20
2022-08-30T03:19:26.388Z,3.50
2022-08-30T03:21:55.570Z,3.08
2022-08-30T03:24:24.560Z,3.20
2022-08-30T03:26:53.679Z,3.50
2022-08-30T03:29:24.193Z,3.70
2022-08-30T03:31:53.960Z,3.30
2022-08-30T03:34:24.088Z,3.40
2022-08-30T03:36:54.088Z,3.35
2022-08-30T03:39:24.789Z,3.67
2022-08-30T03:41:54.078Z,3.70
2022-08-30T03:44:24.833Z,3.75
2022-08-30T03:46:54.183Z,3.50
2022-08-30T03:49:24.541Z,4.13
2022-08-30T03:51:53.646Z,3.90
2022-08-30T03:54:24.672Z,4.07
2022-08-30T03:56:54.111Z,3.80
2022-08-30T03:59:24.786Z,3.80
2022-08-30T04:01:53.889Z,5.57
2022-08-30T04:04:22.974Z,6.45
2022-08-30T04:06:52.362Z,6.32
2022-08-30T04:09:21.493Z,5.85
2022-08-30T04:11:50.977Z,6.28
2022-08-30T04:14:20.410Z,6.00
2022-08-30T04:16:51.027Z,5.60
2022-08-30T04:19:20.196Z,5.57
2022-08-30T04:21:49.292Z,5.57
2022-08-30T04:24:18.418Z,4.75
2022-08-30T04:26:47.428Z,5.18
2022-08-30T04:29:16.936Z,5.70
2022-08-30T04:31:46.482Z,4.85
2022-08-30T04:34:17.090Z,5.45
2022-08-30T04:36:48.319Z,5.13
2022-08-30T04:39:18.371Z,4.78
2022-08-30T04:41:47.464Z,5.63
2022-08-30T04:44:19.415Z,5.25
2022-08-30T04:46:49.131Z,4.85
2022-08-30T04:49:19.538Z,4.47
2022-08-30T04:51:48.716Z,4.10
2022-08-30T04:54:17.919Z,4.40
2022-08-30T04:56:47.134Z,4.32
2022-08-30T04:59:16.968Z,3.90
2022-08-30T05:01:46.254Z,3.53
2022-08-30T05:04:15.986Z,4.40
2022-08-30T05:06:46.448Z,3.53
2022-08-30T05:09:15.614Z,3.43
2022-08-30T05:11:45.024Z,3.72
2022-08-30T05:14:14.203Z,3.30
2022-08-30T05:16:43.578Z,3.38
2022-08-30T05:19:12.787Z,3.22
2022-08-30T05:21:41.833Z,2.95
2022-08-30T05:24:12.275Z,2.80
2022-08-30T05:26:41.383Z,2.73
2022-08-30T05:29:10.449Z,2.80
2022-08-30T05:31:39.646Z,2.47
2022-08-30T05:34:08.862Z,2.72
2022-08-30T05:36:39.145Z,2.30
2022-08-30T05:39:09.282Z,2.25
2022-08-30T05:41:40.537Z,2.42
2022-08-30T05:44:11.553Z,2.25
2022-08-30T05:46:45.722Z,2.15
2022-08-30T05:49:14.792Z,2.35
2022-08-30T05:51:44.158Z,2.10
2022-08-30T05:54:14.267Z,2.10
2022-08-30T05:56:46.852Z,2.22
2022-08-30T05:59:16.700Z,2.50
2022-08-30T06:01:47.850Z,2.45
2022-08-30T06:04:17.572Z,2.42
2022-08-30T06:06:46.631Z,2.70
2022-08-30T06:09:16.626Z,2.80
2022-08-30T06:11:47.957Z,2.70
2022-08-30T06:16:46.800Z,2.80
2022-08-30T06:19:16.594Z,3.10
2022-08-30T06:21:49.514Z,3.20
2022-08-30T06:24:20.733Z,3.22
2022-08-30T06:26:55.443Z,3.22
2022-08-30T06:29:24.790Z,3.75
2022-08-30T06:31:53.865Z,3.53
2022-08-30T06:34:22.958Z,3.92
2022-08-30T06:36:52.080Z,3.90
2022-08-30T06:39:21.117Z,3.58
2022-08-30T06:41:50.271Z,3.88
2022-08-30T06:44:36.462Z,3.47
2022-08-30T06:47:06.245Z,3.50
2022-08-30T06:49:35.461Z,2.60
2022-08-30T06:52:04.797Z,3.10
2022-08-30T06:54:34.056Z,2.65
2022-08-30T06:57:03.601Z,2.30
2022-08-30T06:59:32.693Z,2.10
2022-08-30T07:02:03.267Z,2.50
2022-08-30T07:04:32.383Z,2.17
2022-08-30T07:07:01.449Z,2.28
2022-08-30T07:12:04.334Z,1.83
2022-08-30T07:14:33.445Z,1.85
2022-08-30T07:17:23.989Z,1.58
2022-08-30T07:19:52.145Z,1.65
2022-08-30T07:22:21.537Z,1.63
2022-08-30T07:24:50.623Z,1.65
2022-08-30T07:27:19.716Z,1.70
2022-08-30T07:29:50.573Z,1.55
2022-08-30T07:32:21.416Z,1.50
2022-08-30T07:34:51.759Z,1.38
2022-08-30T07:37:20.937Z,1.35
2022-08-30T07:39:50.205Z,1.33
2022-08-30T07:42:19.611Z,1.45
2022-08-30T07:44:51.084Z,1.30
2022-08-30T07:47:23.113Z,1.33
2022-08-30T07:49:52.152Z,1.20
2022-08-30T07:52:21.283Z,1.10
2022-08-30T07:54:52.766Z,1.17
2022-08-30T07:57:22.355Z,1.25
2022-08-30T07:59:51.870Z,1.33
2022-08-30T08:02:22.521Z,1.10
2022-08-30T08:04:51.597Z,1.27
2022-08-30T08:07:20.794Z,1.50
2022-08-30T08:09:49.837Z,1.30
2022-08-30T08:12:18.908Z,1.23
2022-08-30T08:14:47.935Z,1.20
2022-08-30T08:17:17.398Z,1.02
2022-08-30T08:19:47.780Z,1.17
2022-08-30T08:22:21.243Z,1.20
2022-08-30T08:24:52.087Z,1.10
2022-08-30T08:27:21.165Z,1.30
2022-08-30T08:29:50.185Z,1.10
2022-08-30T08:32:19.223Z,1.00
2022-08-30T08:34:50.075Z,1.23
2022-08-30T08:37:21.302Z,1.08
2022-08-30T08:39:55.846Z,1.10
2022-08-30T08:42:33.098Z,0.80
2022-08-30T08:45:10.924Z,0.90
2022-08-30T08:47:42.841Z,0.80
2022-08-30T08:50:18.646Z,1.00
2022-08-30T08:53:25.013Z,0.82
2022-08-30T08:56:00.747Z,1.13
2022-08-30T08:58:32.344Z,1.05
2022-08-30T09:01:01.904Z,0.75
2022-08-30T09:03:31.233Z,1.10
2022-08-30T09:06:05.260Z,0.80
2022-08-30T09:08:37.104Z,0.70
2022-08-30T09:11:11.348Z,0.68
2022-08-30T09:13:40.373Z,0.82
2022-08-30T09:16:09.621Z,0.82
2022-08-30T09:18:54.585Z,0.80
2022-08-30T09:21:28.903Z,0.80
2022-08-30T09:24:00.647Z,0.70
2022-08-30T09:26:31.398Z,0.70
2022-08-30T09:29:01.221Z,1.08
2022-08-30T09:31:32.536Z,0.90
2022-08-30T09:36:40.941Z,0.98
2022-08-30T09:39:18.859Z,0.90
2022-08-30T09:41:50.881Z,1.35
2022-08-30T09:44:22.120Z,1.13
2022-08-30T09:46:53.399Z,1.10
2022-08-30T09:52:18.810Z,1.33
2022-08-30T09:55:03.072Z,1.30
2022-08-30T09:57:39.648Z,1.10
2022-08-30T10:00:15.007Z,1.00
2022-08-30T10:03:08.186Z,1.20
2022-08-30T10:05:49.666Z,1.40
2022-08-30T10:08:32.948Z,1.40
2022-08-30T10:11:06.494Z,1.45
2022-08-30T10:14:01.636Z,1.45
2022-08-30T10:16:43.680Z,1.38
2022-08-30T10:19:30.261Z,1.40
2022-08-30T10:22:04.358Z,1.30
2022-08-30T10:24:39.068Z,1.20
2022-08-30T10:27:16.155Z,1.42
2022-08-30T10:29:54.474Z,1.60
2022-08-30T10:32:29.601Z,1.45
2022-08-30T10:35:04.346Z,1.35
2022-08-30T10:37:39.519Z,1.20
2022-08-30T10:40:50.127Z,1.30
2022-08-30T10:43:26.013Z,1.30
2022-08-30T10:46:01.063Z,1.30
2022-08-30T10:48:35.485Z,1.50
2022-08-30T10:51:11.940Z,1.70
2022-08-30T10:53:45.718Z,1.42
2022-08-30T10:56:20.655Z,1.33
2022-08-30T10:58:50.013Z,1.25
2022-08-30T11:01:54.824Z,1.55
2022-08-30T11:04:46.373Z,1.40
2022-08-30T11:10:04.068Z,1.13
2022-08-30T11:12:39.281Z,1.27
2022-08-30T11:15:18.207Z,1.42
2022-08-30T11:17:58.773Z,1.20
2022-08-30T11:20:37.929Z,1.38
2022-08-30T11:23:33.255Z,1.40
2022-08-30T11:26:05.111Z,1.20
2022-08-30T11:29:08.094Z,1.10
2022-08-30T11:31:43.120Z,1.40
2022-08-30T11:34:13.988Z,1.33
2022-08-30T11:37:09.623Z,1.40
2022-08-30T11:40:15.585Z,1.02
2022-08-30T11:42:49.191Z,1.08
2022-08-30T11:45:55.755Z,1.00
2022-08-30T11:48:46.975Z,1.20
2022-08-30T11:52:23.519Z,1.20
2022-08-30T11:57:31.686Z,1.10
2022-08-30T12:00:09.509Z,1.30
2022-08-30T12:02:53.766Z,1.25
2022-08-30T12:05:55.238Z,1.20
2022-08-30T12:09:02.116Z,1.10
2022-08-30T12:12:05.997Z,1.27
2022-08-30T12:14:49.107Z,1.27
2022-08-30T12:17:50.791Z,1.10
2022-08-30T12:20:29.666Z,1.10
2022-08-30T12:23:14.449Z,1.10
2022-08-30T12:25:44.497Z,1.20
2022-08-30T12:28:18.213Z,1.08
2022-08-30T12:30:47.878Z,1.20
2022-08-30T12:33:29.173Z,1.20
2022-08-30T12:36:01.554Z,1.23
2022-08-30T12:38:32.882Z,1.30
2022-08-30T12:41:05.601Z,1.27
2022-08-30T12:43:40.461Z,1.30
2022-08-30T12:46:16.135Z,1.20
2022-08-30T12:48:46.235Z,1.20
2022-08-30T12:51:41.163Z,1.38
2022-08-30T12:54:18.389Z,1.20
2022-08-30T12:57:19.235Z,1.17
2022-08-30T13:00:01.592Z,0.90
2022-08-30T13:02:45.878Z,1.00
2022-08-30T13:05:48.476Z,1.00
2022-08-30T13:08:25.452Z,1.17
2022-08-30T13:10:59.346Z,0.90
2022-08-30T13:13:32.378Z,1.08
2022-08-30T13:16:10.613Z,0.90
2022-08-30T13:18:43.658Z,0.90
2022-08-30T13:21:29.122Z,0.85
2022-08-30T13:24:02.257Z,0.88
2022-08-30T13:26:34.377Z,0.80
2022-08-30T13:29:10.401Z,0.90
2022-08-30T13:31:39.817Z,0.90
2022-08-30T13:34:09.887Z,0.80
2022-08-30T13:36:44.813Z,1.00
2022-08-30T13:39:16.708Z,1.00
2022-08-30T13:41:51.616Z,1.10
2022-08-30T13:44:20.910Z,0.95
2022-08-30T13:46:55.280Z,1.05
2022-08-30T13:49:45.350Z,1.00
2022-08-30T13:52:21.959Z,0.95
2022-08-30T13:54:54.768Z,1.00
2022-08-30T14:00:23.706Z,1.00
2022-08-30T14:02:57.337Z,1.20
2022-08-30T14:06:05.310Z,1.23
2022-08-30T14:11:13.499Z,1.05
2022-08-30T14:16:34.979Z,1.13
2022-08-30T14:19:05.817Z,1.10
2022-08-30T14:21:37.568Z,0.80
2022-08-30T14:24:07.212Z,1.10
2022-08-30T14:26:40.854Z,1.02
2022-08-30T14:29:12.070Z,1.00
2022-08-30T14:31:41.812Z,1.10
2022-08-30T14:34:12.291Z,1.00
2022-08-30T14:36:44.104Z,1.07
2022-08-30T14:39:15.321Z,1.13
2022-08-30T14:41:47.959Z,1.40
2022-08-30T14:44:18.361Z,1.10
2022-08-30T14:46:48.173Z,1.07
2022-08-30T14:49:17.727Z,1.20
2022-08-30T14:51:48.527Z,1.20
2022-08-30T14:54:19.189Z,1.10
2022-08-30T14:56:50.035Z,0.90
2022-08-30T14:59:19.155Z,1.10
2022-08-30T15:01:48.397Z,1.00
2022-08-30T15:04:17.831Z,1.20
2022-08-30T15:06:50.967Z,1.08
2022-08-30T15:09:23.551Z,1.17
2022-08-30T15:11:58.758Z,1.20
2022-08-30T15:14:28.992Z,1.25
2022-08-30T15:16:59.546Z,1.30
2022-08-30T15:19:31.342Z,1.53
2022-08-30T15:22:02.480Z,1.33
2022-08-30T15:24:32.436Z,1.23
2022-08-30T15:27:04.552Z,1.40
2022-08-30T15:29:35.205Z,1.70
2022-08-30T15:32:05.683Z,1.50
2022-08-30T15:34:34.978Z,1.50
2022-08-30T15:37:05.063Z,1.30
2022-08-30T15:39:34.144Z,1.80
2022-08-30T15:42:04.971Z,1.60
2022-08-30T15:44:34.459Z,1.30
2022-08-30T15:47:03.846Z,1.60
2022-08-30T15:49:33.012Z,1.20
2022-08-30T15:52:04.305Z,1.50
2022-08-30T15:54:33.725Z,1.50
2022-08-30T15:57:05.823Z,1.30
2022-08-30T15:59:35.277Z,1.40
2022-08-30T16:02:04.576Z,1.85
2022-08-30T16:04:35.043Z,1.75
2022-08-30T16:07:04.483Z,1.60
2022-08-30T16:09:33.975Z,1.77
2022-08-30T16:12:05.533Z,1.60
2022-08-30T16:14:35.667Z,1.60
2022-08-30T16:17:05.741Z,1.20
2022-08-30T16:19:34.951Z,1.85
2022-08-30T16:22:04.221Z,1.20
2022-08-30T16:24:33.388Z,1.30
2022-08-30T16:27:02.486Z,1.40
2022-08-30T16:29:33.217Z,1.25
2022-08-30T16:32:02.759Z,1.35
2022-08-30T16:34:31.847Z,1.55
2022-08-30T16:37:02.728Z,2.15
2022-08-30T16:39:31.815Z,1.50
2022-08-30T16:42:03.115Z,1.80
2022-08-30T16:44:33.985Z,1.50
2022-08-30T16:47:03.913Z,1.50
2022-08-30T16:49:33.083Z,1.83
2022-08-30T16:52:02.490Z,1.60
2022-08-30T16:54:32.337Z,1.50
2022-08-30T16:57:02.074Z,1.65
2022-08-30T16:59:31.183Z,1.80
2022-08-30T17:02:02.008Z,1.60
2022-08-30T17:04:32.632Z,1.27
2022-08-30T17:07:01.816Z,1.27
2022-08-30T17:09:31.492Z,1.30
2022-08-30T17:12:00.722Z,1.42
2022-08-30T17:14:32.954Z,1.48
2022-08-30T17:17:04.115Z,1.40
2022-08-30T17:19:37.944Z,1.50
2022-08-30T17:22:10.741Z,1.80
2022-08-30T17:24:40.731Z,1.60
2022-08-30T17:27:13.129Z,1.90
2022-08-30T17:29:42.247Z,2.10
2022-08-30T17:32:12.856Z,1.95
2022-08-30T17:34:42.105Z,2.35
2022-08-30T17:37:11.106Z,2.20
2022-08-30T17:39:40.186Z,1.80
2022-08-30T17:42:09.435Z,1.70
2022-08-30T17:44:42.018Z,2.15
2022-08-30T17:47:13.335Z,1.60
2022-08-30T17:49:43.041Z,1.60
2022-08-30T17:52:12.826Z,1.50
2022-08-30T17:54:42.553Z,1.80
2022-08-30T17:57:13.169Z,1.73
2022-08-30T17:59:43.293Z,1.83
2022-08-30T18:02:14.728Z,1.60
2022-08-30T18:04:44.518Z,1.40
2022-08-30T18:07:15.788Z,1.38
2022-08-30T18:09:44.989Z,1.30
2022-08-30T18:12:15.074Z,1.70
2022-08-30T18:14:44.171Z,2.08
2022-08-30T18:17:15.323Z,1.60
2022-08-30T18:19:46.441Z,1.80
2022-08-30T18:22:16.355Z,2.03
2022-08-30T18:24:45.758Z,1.88
2022-08-30T18:27:15.574Z,2.25
2022-08-30T18:29:44.699Z,1.70
2022-08-30T18:32:15.131Z,1.80
2022-08-30T18:34:44.411Z,2.03
2022-08-30T18:37:14.591Z,2.25
2022-08-30T18:39:46.226Z,1.75
2022-08-30T18:42:16.592Z,2.20
2022-08-30T18:44:45.773Z,1.80
2022-08-30T18:47:17.217Z,2.10
2022-08-30T18:49:54.529Z,1.75
2022-08-30T18:52:25.345Z,1.70
2022-08-30T18:54:55.212Z,2.58
2022-08-30T18:57:28.139Z,1.77
2022-08-30T18:59:57.297Z,2.00
2022-08-30T19:02:28.010Z,1.83
2022-08-30T19:04:57.226Z,1.98
2022-08-30T19:07:34.366Z,2.00
2022-08-30T19:10:07.851Z,2.10
2022-08-30T19:12:42.141Z,1.77
2022-08-30T19:15:12.123Z,1.98
2022-08-30T19:17:45.101Z,1.92
2022-08-30T19:20:22.349Z,1.80
2022-08-30T19:23:09.223Z,1.92
2022-08-30T19:25:42.103Z,2.05
2022-08-30T19:28:12.333Z,1.80
2022-08-30T19:30:41.763Z,1.60
2022-08-30T19:33:14.315Z,1.67
2022-08-30T19:35:47.643Z,2.17
2022-08-30T19:38:19.627Z,1.75
2022-08-30T19:40:53.965Z,1.73
2022-08-30T19:43:24.581Z,1.90
2022-08-30T19:45:55.152Z,1.85
2022-08-30T19:48:27.665Z,1.55
2022-08-30T19:51:06.698Z,1.38
2022-08-30T19:53:36.718Z,1.60
2022-08-30T19:56:06.642Z,1.73
2022-08-30T19:58:36.506Z,2.58
2022-08-30T20:01:10.572Z,3.05
2022-08-30T20:03:44.787Z,3.33
2022-08-30T20:06:14.336Z,7.40
2022-08-30T20:08:44.623Z,4.63
2022-08-30T20:11:14.989Z,2.33
2022-08-30T20:13:44.498Z,1.88
2022-08-30T20:16:14.713Z,1.70
2022-08-30T20:18:45.997Z,2.63
2022-08-30T20:21:15.789Z,3.13
2022-08-30T20:23:45.432Z,1.75
2022-08-30T20:26:15.062Z,2.30
2022-08-30T20:28:44.155Z,1.77
2022-08-30T20:31:13.320Z,1.75
2022-08-30T20:33:42.498Z,1.80
2022-08-30T20:36:13.317Z,1.60
2022-08-30T20:38:42.472Z,2.45
2022-08-30T20:41:13.602Z,3.03
2022-08-30T20:43:42.934Z,6.00
2022-08-30T20:46:14.265Z,8.25
2022-08-30T20:51:15.662Z,6.20
2022-08-30T20:53:45.270Z,8.55
2022-08-30T20:56:15.455Z,3.10
2022-08-30T20:58:46.763Z,3.30
2022-08-30T21:01:17.255Z,2.40
2022-08-30T21:03:47.725Z,2.30
2022-08-30T21:06:18.350Z,2.40
2022-08-30T21:08:47.426Z,2.70
2022-08-30T21:11:16.569Z,2.90
2022-08-30T21:13:45.626Z,2.60
2022-08-30T21:16:14.755Z,2.42
2022-08-30T21:18:43.851Z,2.10
2022-08-30T21:21:14.018Z,1.88
2022-08-30T21:23:44.497Z,2.30
2022-08-30T21:26:15.778Z,2.10
2022-08-30T21:28:46.948Z,2.10
2022-08-30T21:31:19.216Z,2.17
2022-08-30T21:33:49.116Z,2.10
2022-08-30T21:36:36.879Z,1.80
2022-08-30T21:39:08.192Z,2.45
2022-08-30T21:41:38.987Z,1.75
2022-08-30T21:44:13.094Z,1.83
2022-08-30T21:46:42.311Z,1.83
2022-08-30T21:49:12.922Z,1.90
2022-08-30T21:51:44.125Z,1.92
2022-08-30T21:54:16.739Z,1.95
2022-08-30T21:56:47.679Z,1.88
2022-08-30T21:59:18.437Z,1.90
2022-08-30T22:01:48.816Z,2.30
2022-08-30T22:04:18.896Z,2.00
2022-08-30T22:06:50.374Z,1.98
2022-08-30T22:09:26.230Z,1.90
2022-08-30T22:11:56.380Z,2.13
2022-08-30T22:14:26.550Z,3.20
2022-08-30T22:16:56.363Z,2.30
2022-08-30T22:19:25.502Z,2.60
2022-08-30T22:22:01.001Z,2.40
2022-08-30T22:24:33.090Z,2.40
2022-08-30T22:27:03.144Z,2.47
2022-08-30T22:29:32.313Z,2.22
2022-08-30T22:32:01.569Z,1.83
2022-08-30T22:34:32.000Z,1.88
2022-08-30T22:37:01.221Z,2.28
2022-08-30T22:39:31.862Z,2.53
2022-08-30T22:42:00.865Z,2.10
2022-08-30T22:44:29.909Z,2.80
2022-08-30T22:46:59.031Z,2.00
2022-08-30T22:49:28.136Z,2.10
2022-08-30T22:51:57.200Z,2.00
2022-08-30T22:54:26.307Z,2.38
2022-08-30T22:56:56.791Z,2.13
2022-08-30T22:59:31.305Z,2.27
2022-08-30T23:02:01.577Z,2.10
2022-08-30T23:04:30.831Z,2.25
2022-08-30T23:06:59.896Z,2.20
2022-08-30T23:09:29.299Z,2.30
2022-08-30T23:11:59.787Z,2.40
2022-08-30T23:14:28.788Z,2.10
2022-08-30T23:16:57.959Z,2.60
2022-08-30T23:19:27.115Z,2.40
2022-08-30T23:21:56.266Z,2.78
2022-08-30T23:24:42.372Z,1.95
2022-08-30T23:27:37.181Z,2.25
2022-08-30T23:30:24.329Z,2.10
2022-08-30T23:33:11.004Z,2.15
2022-08-30T23:35:58.183Z,2.20
2022-08-30T23:38:44.820Z,2.00
2022-08-30T23:41:34.032Z,1.75
2022-08-30T23:44:22.826Z,1.77
2022-08-30T23:47:09.871Z,2.20
2022-08-30T23:49:56.836Z,2.05
2022-08-30T23:52:43.490Z,2.22
2022-08-30T23:55:30.147Z,1.92
2022-08-30T23:58:16.649Z,2.08
